createdAt,value
2018-08-19T00:01:03.330Z,15.60
2018-08-19T00:03:31.541Z,15.40
2018-08-19T00:05:59.783Z,15.30
2018-08-19T00:08:28.132Z,15.90
2018-08-19T00:11:01.452Z,16.10
2018-08-19T00:13:29.665Z,16.50
2018-08-19T00:15:57.903Z,16.90
2018-08-19T00:18:26.085Z,17.00
2018-08-19T00:20:54.233Z,16.70
2018-08-19T00:23:22.437Z,16.10
2018-08-19T00:25:50.729Z,16.10
2018-08-19T00:28:20.175Z,16.00
2018-08-19T00:30:48.666Z,16.20
2018-08-19T00:33:17.685Z,15.90
2018-08-19T00:35:46.201Z,15.90
2018-08-19T00:38:15.701Z,16.30
2018-08-19T00:40:44.373Z,16.60
2018-08-19T00:43:12.758Z,16.30
2018-08-19T00:45:41.225Z,16.20
2018-08-19T00:48:11.263Z,15.90
2018-08-19T00:50:40.160Z,15.80
2018-08-19T00:53:09.810Z,15.50
2018-08-19T00:55:43.663Z,15.70
2018-08-19T00:58:18.496Z,15.10
2018-08-19T01:00:47.024Z,15.80
2018-08-19T01:03:15.435Z,16.10
2018-08-19T01:05:43.839Z,15.10
2018-08-19T01:08:13.569Z,14.60
2018-08-19T01:10:42.136Z,14.60
2018-08-19T01:13:11.675Z,14.30
2018-08-19T01:15:40.218Z,14.40
2018-08-19T01:18:08.678Z,14.90
2018-08-19T01:20:37.224Z,15.30
2018-08-19T01:23:05.718Z,15.40
2018-08-19T01:25:34.149Z,15.10
2018-08-19T01:28:02.702Z,15.00
2018-08-19T01:30:31.194Z,15.50
2018-08-19T01:32:59.640Z,15.60
2018-08-19T01:35:33.441Z,15.70
2018-08-19T01:38:01.746Z,15.40
2018-08-19T01:40:30.297Z,14.80
2018-08-19T01:42:58.728Z,15.20
2018-08-19T01:45:27.098Z,15.60
2018-08-19T01:47:55.474Z,15.40
2018-08-19T01:50:23.886Z,14.70
2018-08-19T01:52:52.308Z,14.20
2018-08-19T01:55:20.751Z,14.00
2018-08-19T01:57:50.452Z,14.00
2018-08-19T02:00:19.267Z,14.40
2018-08-19T02:02:57.686Z,14.80
2018-08-19T02:05:26.682Z,14.90
2018-08-19T02:07:57.670Z,14.30
2018-08-19T02:10:26.705Z,14.30
2018-08-19T02:12:56.225Z,15.00
2018-08-19T02:15:26.098Z,15.00
2018-08-19T02:17:57.165Z,14.30
2018-08-19T02:20:31.879Z,14.00
2018-08-19T02:23:08.321Z,14.20
2018-08-19T02:25:40.794Z,14.00
2018-08-19T02:28:09.966Z,13.80
2018-08-19T02:30:46.470Z,14.20
2018-08-19T02:33:14.787Z,14.00
2018-08-19T02:35:44.451Z,14.60
2018-08-19T02:38:12.969Z,14.90
2018-08-19T02:40:41.443Z,15.30
2018-08-19T02:43:09.948Z,15.30
2018-08-19T02:45:38.504Z,14.60
2018-08-19T02:48:06.986Z,14.80
2018-08-19T02:50:35.445Z,15.00
2018-08-19T02:53:03.923Z,14.70
2018-08-19T02:55:32.446Z,14.30
2018-08-19T02:58:06.123Z,13.90
2018-08-19T03:00:34.568Z,14.30
2018-08-19T03:03:03.052Z,14.30
2018-08-19T03:05:31.439Z,14.60
2018-08-19T03:08:00.118Z,14.80
2018-08-19T03:10:28.738Z,15.10
2018-08-19T03:12:57.136Z,15.10
2018-08-19T03:15:25.675Z,14.40
2018-08-19T03:17:54.098Z,14.50
2018-08-19T03:20:22.486Z,14.50
2018-08-19T03:22:50.916Z,14.00
2018-08-19T03:25:19.862Z,14.50
2018-08-19T03:27:48.413Z,15.10
2018-08-19T03:30:16.823Z,15.50
2018-08-19T03:32:50.828Z,15.40
2018-08-19T03:35:20.885Z,15.50
2018-08-19T03:37:52.295Z,15.20
2018-08-19T03:40:20.766Z,14.30
2018-08-19T03:42:49.216Z,13.60
2018-08-19T03:45:20.698Z,13.40
2018-08-19T03:47:52.217Z,14.30
2018-08-19T03:50:24.692Z,14.60
2018-08-19T03:52:53.888Z,14.60
2018-08-19T03:55:28.387Z,13.50
2018-08-19T03:58:05.566Z,13.20
2018-08-19T04:00:35.185Z,13.10
2018-08-19T04:03:10.686Z,13.50
2018-08-19T04:05:46.842Z,13.40
2018-08-19T04:08:16.100Z,12.90
2018-08-19T04:10:45.686Z,12.80
2018-08-19T04:13:29.018Z,12.70
2018-08-19T04:15:59.526Z,13.10
2018-08-19T04:18:34.970Z,13.00
2018-08-19T04:21:04.832Z,12.50
2018-08-19T04:23:33.984Z,12.50
2018-08-19T04:26:02.709Z,13.40
2018-08-19T04:28:34.272Z,13.40
2018-08-19T04:31:03.910Z,14.00
2018-08-19T04:33:33.105Z,14.10
2018-08-19T04:36:01.911Z,14.20
2018-08-19T04:38:30.477Z,14.30
2018-08-19T04:40:59.883Z,14.30
2018-08-19T04:43:29.293Z,13.30
2018-08-19T04:45:57.623Z,13.20
2018-08-19T04:48:27.188Z,12.70
2018-08-19T04:50:56.748Z,12.80
2018-08-19T04:53:25.356Z,13.10
2018-08-19T04:55:54.522Z,13.00
2018-08-19T04:58:22.973Z,13.20
2018-08-19T05:00:51.524Z,13.20
2018-08-19T05:03:20.067Z,13.00
2018-08-19T05:05:48.439Z,13.20
2018-08-19T05:08:16.972Z,13.70
2018-08-19T05:10:45.268Z,14.20
2018-08-19T05:13:14.030Z,14.50
2018-08-19T05:15:42.987Z,14.60
2018-08-19T05:18:11.485Z,14.70
2018-08-19T05:20:39.914Z,14.90
2018-08-19T05:23:08.861Z,15.00
2018-08-19T05:25:45.672Z,15.30
2018-08-19T05:28:17.711Z,15.10
2018-08-19T05:30:46.924Z,15.20
2018-08-19T05:33:15.333Z,15.30
2018-08-19T05:35:43.813Z,15.00
2018-08-19T05:38:12.375Z,15.40
2018-08-19T05:40:47.997Z,15.70
2018-08-19T05:43:16.573Z,15.90
2018-08-19T05:45:50.230Z,16.10
2018-08-19T05:48:18.730Z,16.40
2018-08-19T05:50:47.187Z,17.00
2018-08-19T05:53:15.627Z,17.50
2018-08-19T05:55:44.301Z,17.80
2018-08-19T05:58:12.937Z,18.00
2018-08-19T06:00:42.750Z,18.50
2018-08-19T06:03:11.437Z,18.50
2018-08-19T06:05:39.949Z,18.80
2018-08-19T06:08:13.850Z,18.70
2018-08-19T06:10:42.573Z,19.00
2018-08-19T06:13:11.887Z,18.30
2018-08-19T06:15:40.415Z,18.80
2018-08-19T06:18:09.803Z,19.30
2018-08-19T06:20:38.214Z,19.60
2018-08-19T06:23:06.655Z,19.80
2018-08-19T06:25:35.027Z,20.20
2018-08-19T06:28:03.535Z,20.40
2018-08-19T06:30:32.834Z,19.60
2018-08-19T06:33:01.359Z,20.50
2018-08-19T06:35:29.774Z,21.10
2018-08-19T06:37:58.175Z,21.60
2018-08-19T06:40:26.662Z,21.60
2018-08-19T06:42:55.023Z,21.10
2018-08-19T06:45:23.373Z,21.40
2018-08-19T06:47:51.783Z,21.60
2018-08-19T06:50:28.145Z,21.80
2018-08-19T06:52:56.826Z,21.80
2018-08-19T06:55:25.237Z,21.40
2018-08-19T06:57:55.598Z,21.50
2018-08-19T07:00:27.714Z,21.60
2018-08-19T07:02:59.692Z,21.70
2018-08-19T07:05:28.200Z,22.00
2018-08-19T07:07:56.633Z,22.30
2018-08-19T07:10:31.243Z,22.90
2018-08-19T07:13:07.010Z,21.70
2018-08-19T07:15:36.706Z,22.90
2018-08-19T07:18:06.256Z,23.70
2018-08-19T07:20:34.923Z,23.90
2018-08-19T07:23:03.317Z,23.90
2018-08-19T07:25:31.710Z,23.80
2018-08-19T07:28:00.213Z,24.00
2018-08-19T07:30:28.613Z,24.30
2018-08-19T07:32:57.110Z,24.00
2018-08-19T07:35:25.476Z,25.00
2018-08-19T07:37:53.871Z,25.30
2018-08-19T07:40:22.261Z,25.80
2018-08-19T07:42:50.631Z,25.20
2018-08-19T07:45:19.042Z,24.90
2018-08-19T07:47:47.418Z,24.50
2018-08-19T07:50:15.853Z,24.50
2018-08-19T07:52:44.273Z,24.80
2018-08-19T07:55:12.623Z,25.10
2018-08-19T07:57:41.300Z,23.70
2018-08-19T08:00:10.210Z,23.90
2018-08-19T08:02:38.594Z,23.10
2018-08-19T08:05:08.293Z,22.70
2018-08-19T08:07:36.810Z,23.40
2018-08-19T08:10:06.220Z,22.60
2018-08-19T08:12:34.639Z,23.30
2018-08-19T08:15:03.148Z,24.50
2018-08-19T08:17:31.450Z,25.40
2018-08-19T08:20:04.473Z,25.50
2018-08-19T08:22:33.842Z,25.70
2018-08-19T08:25:02.238Z,26.40
2018-08-19T08:27:31.708Z,25.60
2018-08-19T08:30:03.524Z,25.30
2018-08-19T08:32:31.945Z,26.60
2018-08-19T08:35:00.457Z,27.10
2018-08-19T08:37:28.956Z,27.60
2018-08-19T08:40:02.433Z,28.00
2018-08-19T08:42:39.612Z,28.30
2018-08-19T08:45:08.815Z,27.80
2018-08-19T08:47:37.397Z,28.10
2018-08-19T08:50:06.086Z,28.00
2018-08-19T08:52:34.450Z,27.90
2018-08-19T08:55:03.614Z,27.00
2018-08-19T08:57:32.078Z,27.00
2018-08-19T09:00:00.468Z,25.80
2018-08-19T09:02:28.945Z,26.60
2018-08-19T09:04:57.309Z,27.10
2018-08-19T09:07:27.499Z,27.30
2018-08-19T09:09:56.049Z,27.60
2018-08-19T09:12:35.770Z,27.60
2018-08-19T09:15:04.582Z,27.50
2018-08-19T09:17:33.039Z,27.60
2018-08-19T09:20:01.380Z,28.10
2018-08-19T09:22:29.771Z,27.70
2018-08-19T09:24:58.025Z,27.70
2018-08-19T09:27:26.550Z,28.30
2018-08-19T09:29:55.064Z,27.50
2018-08-19T09:32:23.527Z,26.90
2018-08-19T09:34:51.989Z,27.50
2018-08-19T09:37:20.266Z,28.70
2018-08-19T09:39:48.823Z,28.70
2018-08-19T09:42:17.186Z,29.10
2018-08-19T09:44:45.683Z,29.30
2018-08-19T09:47:14.184Z,29.80
2018-08-19T09:49:42.539Z,29.30
2018-08-19T09:52:10.958Z,28.90
2018-08-19T09:54:39.368Z,28.80
2018-08-19T09:57:08.530Z,28.50
2018-08-19T09:59:36.879Z,29.00
2018-08-19T10:02:07.613Z,29.30
2018-08-19T10:04:35.974Z,28.70
2018-08-19T10:07:10.181Z,29.40
2018-08-19T10:09:38.715Z,30.10
2018-08-19T10:12:07.260Z,30.90
2018-08-19T10:14:35.662Z,29.30
2018-08-19T10:17:04.019Z,28.60
2018-08-19T10:19:32.510Z,28.60
2018-08-19T10:22:00.954Z,29.90
2018-08-19T10:24:30.749Z,29.90
2018-08-19T10:26:59.519Z,29.90
2018-08-19T10:29:27.896Z,31.60
2018-08-19T10:31:58.346Z,32.30
2018-08-19T10:34:35.137Z,32.20
2018-08-19T10:37:04.002Z,32.50
2018-08-19T10:39:32.404Z,32.30
2018-08-19T10:42:17.898Z,33.20
2018-08-19T10:44:48.162Z,32.40
2018-08-19T10:47:16.512Z,33.30
2018-08-19T10:49:54.206Z,34.30
2018-08-19T10:52:26.230Z,33.80
2018-08-19T10:54:55.756Z,33.30
2018-08-19T10:57:24.261Z,32.80
2018-08-19T10:59:55.697Z,32.00
2018-08-19T11:02:24.269Z,31.40
2018-08-19T11:04:55.173Z,31.80
2018-08-19T11:07:23.542Z,31.90
2018-08-19T11:10:09.373Z,32.70
2018-08-19T11:12:37.799Z,33.20
2018-08-19T11:15:16.189Z,33.30
2018-08-19T11:17:44.801Z,33.60
2018-08-19T11:20:13.187Z,33.70
2018-08-19T11:22:41.669Z,34.10
2018-08-19T11:25:10.053Z,34.50
2018-08-19T11:27:38.501Z,32.80
2018-08-19T11:30:06.796Z,32.00
2018-08-19T11:32:37.064Z,33.40
2018-08-19T11:35:05.886Z,33.80
2018-08-19T11:37:34.302Z,34.10
2018-08-19T11:40:02.646Z,31.40
2018-08-19T11:42:31.058Z,32.40
2018-08-19T11:44:59.567Z,33.80
2018-08-19T11:47:27.958Z,34.60
2018-08-19T11:49:56.339Z,32.80
2018-08-19T11:52:24.743Z,31.70
2018-08-19T11:54:53.207Z,30.70
2018-08-19T11:57:21.649Z,31.70
2018-08-19T11:59:50.081Z,32.50
2018-08-19T12:02:19.878Z,32.60
2018-08-19T12:04:48.522Z,32.90
2018-08-19T12:07:17.400Z,34.60
2018-08-19T12:10:00.010Z,34.30
2018-08-19T12:12:46.167Z,34.30
2018-08-19T12:15:14.535Z,34.00
2018-08-19T12:17:43.006Z,33.10
2018-08-19T12:20:11.487Z,34.20
2018-08-19T12:22:41.402Z,34.90
2018-08-19T12:25:09.743Z,34.80
2018-08-19T12:27:38.225Z,33.50
2018-08-19T12:30:11.721Z,33.50
2018-08-19T12:32:40.063Z,33.70
2018-08-19T12:35:08.531Z,34.70
2018-08-19T12:37:36.970Z,35.00
2018-08-19T12:40:05.762Z,35.20
2018-08-19T12:42:39.101Z,34.60
2018-08-19T12:45:08.117Z,34.60
2018-08-19T12:47:37.138Z,34.30
2018-08-19T12:50:08.588Z,33.80
2018-08-19T12:52:37.100Z,33.20
2018-08-19T12:55:07.330Z,32.20
2018-08-19T12:57:36.596Z,31.70
2018-08-19T13:00:17.521Z,31.70
2018-08-19T13:02:47.624Z,31.50
2018-08-19T13:05:16.956Z,30.30
2018-08-19T13:07:45.447Z,30.60
2018-08-19T13:10:13.877Z,30.50
2018-08-19T13:12:58.537Z,30.40
2018-08-19T13:15:29.585Z,30.50
2018-08-19T13:17:57.978Z,30.60
2018-08-19T13:20:26.537Z,30.70
2018-08-19T13:23:00.102Z,30.50
2018-08-19T13:25:29.060Z,30.10
2018-08-19T13:27:57.576Z,30.20
2018-08-19T13:30:26.027Z,30.00
2018-08-19T13:32:54.463Z,30.00
2018-08-19T13:35:22.928Z,30.00
2018-08-19T13:37:51.622Z,29.70
2018-08-19T13:40:20.021Z,29.50
2018-08-19T13:42:48.516Z,30.00
2018-08-19T13:45:18.084Z,29.90
2018-08-19T13:47:47.958Z,29.70
2018-08-19T13:50:16.307Z,29.70
2018-08-19T13:52:45.123Z,29.60
2018-08-19T13:55:15.242Z,29.30
2018-08-19T13:57:43.690Z,29.70
2018-08-19T14:00:13.814Z,30.20
2018-08-19T14:02:42.400Z,30.10
2018-08-19T14:05:10.984Z,30.00
2018-08-19T14:07:39.393Z,29.80
2018-08-19T14:10:09.519Z,29.60
2018-08-19T14:12:44.299Z,29.70
2018-08-19T14:15:12.808Z,29.60
2018-08-19T14:17:41.338Z,29.50
2018-08-19T14:20:10.571Z,29.50
2018-08-19T14:22:38.953Z,29.40
2018-08-19T14:25:09.085Z,29.40
2018-08-19T14:27:37.966Z,29.40
2018-08-19T14:30:06.901Z,29.30
2018-08-19T14:32:40.468Z,29.60
2018-08-19T14:35:09.057Z,29.70
2018-08-19T14:37:40.443Z,29.50
2018-08-19T14:40:14.264Z,29.40
2018-08-19T14:42:42.536Z,29.50
2018-08-19T14:45:10.984Z,29.50
2018-08-19T14:47:39.414Z,29.80
2018-08-19T14:50:17.209Z,29.60
2018-08-19T14:52:45.621Z,29.40
2018-08-19T14:55:14.026Z,29.40
2018-08-19T14:57:42.417Z,29.40
2018-08-19T15:00:12.813Z,29.60
2018-08-19T15:02:41.298Z,29.50
2018-08-19T15:05:13.416Z,29.50
2018-08-19T15:07:41.870Z,29.40
2018-08-19T15:10:10.282Z,29.50
2018-08-19T15:12:38.640Z,29.40
2018-08-19T15:15:07.014Z,29.40
2018-08-19T15:17:35.473Z,29.30
2018-08-19T15:20:03.871Z,29.20
2018-08-19T15:22:32.361Z,29.30
2018-08-19T15:25:00.916Z,29.00
2018-08-19T15:27:30.025Z,29.00
2018-08-19T15:29:58.365Z,29.00
2018-08-19T15:32:27.141Z,29.00
2018-08-19T15:34:55.202Z,29.00
2018-08-19T15:37:23.568Z,28.80
2018-08-19T15:39:51.948Z,28.50
2018-08-19T15:42:20.384Z,28.50
2018-08-19T15:44:48.811Z,28.50
2018-08-19T15:47:17.316Z,28.40
2018-08-19T15:49:45.747Z,28.40
2018-08-19T15:52:14.150Z,28.40
2018-08-19T15:54:46.955Z,28.50
2018-08-19T15:57:15.393Z,28.40
2018-08-19T15:59:43.845Z,28.50
2018-08-19T16:02:12.276Z,28.40
2018-08-19T16:04:40.708Z,28.30
2018-08-19T16:07:09.183Z,28.40
2018-08-19T16:09:37.516Z,28.40
2018-08-19T16:12:05.951Z,28.40
2018-08-19T16:14:34.453Z,28.30
2018-08-19T16:17:03.392Z,28.30
2018-08-19T16:19:31.742Z,28.30
2018-08-19T16:22:00.533Z,28.20
2018-08-19T16:24:29.243Z,28.20
2018-08-19T16:26:57.650Z,28.30
2018-08-19T16:29:26.054Z,28.10
2018-08-19T16:31:54.641Z,28.10
2018-08-19T16:34:23.067Z,28.10
2018-08-19T16:36:51.550Z,28.00
2018-08-19T16:39:20.245Z,28.10
2018-08-19T16:41:48.606Z,28.10
2018-08-19T16:44:17.068Z,28.00
2018-08-19T16:46:45.453Z,27.90
2018-08-19T16:49:13.931Z,27.90
2018-08-19T16:51:42.487Z,28.00
2018-08-19T16:54:10.965Z,28.00
2018-08-19T16:56:39.583Z,27.90
2018-08-19T16:59:08.075Z,27.80
2018-08-19T17:01:36.455Z,27.70
2018-08-19T17:04:04.861Z,27.70
2018-08-19T17:06:33.390Z,27.80
2018-08-19T17:09:01.830Z,27.70
2018-08-19T17:11:30.292Z,27.70
2018-08-19T17:13:58.731Z,27.50
2018-08-19T17:16:27.182Z,27.50
2018-08-19T17:18:55.700Z,27.60
2018-08-19T17:21:24.176Z,27.50
2018-08-19T17:23:52.624Z,27.30
2018-08-19T17:26:22.445Z,27.10
2018-08-19T17:28:51.108Z,27.00
2018-08-19T17:31:19.688Z,27.10
2018-08-19T17:33:48.127Z,27.00
2018-08-19T17:36:23.022Z,27.00
2018-08-19T17:38:51.435Z,26.90
2018-08-19T17:41:19.811Z,26.60
2018-08-19T17:43:48.186Z,26.50
2018-08-19T17:46:17.303Z,26.60
2018-08-19T17:48:45.797Z,26.50
2018-08-19T17:51:26.766Z,26.30
2018-08-19T17:53:55.158Z,26.30
2018-08-19T17:56:23.534Z,26.40
2018-08-19T17:58:51.975Z,26.40
2018-08-19T18:01:20.666Z,26.40
2018-08-19T18:03:49.144Z,26.30
2018-08-19T18:06:17.633Z,25.90
2018-08-19T18:08:50.396Z,26.00
2018-08-19T18:11:19.029Z,25.90
2018-08-19T18:13:47.850Z,25.80
2018-08-19T18:16:16.366Z,25.90
2018-08-19T18:18:45.437Z,25.90
2018-08-19T18:21:13.964Z,25.80
2018-08-19T18:23:46.874Z,25.60
2018-08-19T18:26:15.509Z,25.70
2018-08-19T18:28:45.546Z,25.70
2018-08-19T18:31:14.013Z,25.70
2018-08-19T18:33:50.325Z,25.30
2018-08-19T18:36:20.336Z,25.10
2018-08-19T18:38:48.613Z,25.10
2018-08-19T18:41:23.730Z,25.20
2018-08-19T18:43:54.142Z,25.30
2018-08-19T18:46:23.130Z,25.10
2018-08-19T18:49:06.174Z,25.00
2018-08-19T18:51:34.635Z,25.00
2018-08-19T18:56:56.261Z,24.40
2018-08-19T18:59:24.414Z,24.20
2018-08-19T19:01:55.821Z,23.90
2018-08-19T19:04:23.998Z,23.80
2018-08-19T19:06:52.224Z,23.60
2018-08-19T19:09:20.429Z,23.60
2018-08-19T19:11:50.524Z,23.60
2018-08-19T19:14:19.803Z,23.60
2018-08-19T19:16:48.933Z,23.60
2018-08-19T19:19:17.198Z,23.40
2018-08-19T19:21:49.785Z,23.30
2018-08-19T19:24:23.475Z,23.50
2018-08-19T19:26:51.677Z,23.70
2018-08-19T19:29:26.175Z,23.80
2018-08-19T19:31:54.922Z,23.80
2018-08-19T19:34:23.208Z,23.70
2018-08-19T19:36:51.361Z,23.40
2018-08-19T19:39:19.578Z,23.50
2018-08-19T19:41:50.498Z,23.50
2018-08-19T19:44:25.905Z,23.40
2018-08-19T19:46:54.447Z,23.30
2018-08-19T19:49:23.192Z,23.30
2018-08-19T19:51:56.849Z,23.20
2018-08-19T19:54:25.453Z,23.20
2018-08-19T19:56:53.672Z,23.00
2018-08-19T19:59:25.457Z,23.10
2018-08-19T20:01:53.678Z,23.00
2018-08-19T20:04:21.910Z,22.90
2018-08-19T20:06:50.103Z,22.80
2018-08-19T20:09:25.079Z,22.90
2018-08-19T20:11:53.314Z,22.80
2018-08-19T20:14:21.524Z,22.60
2018-08-19T20:16:49.754Z,22.60
2018-08-19T20:19:17.987Z,22.50
2018-08-19T20:21:46.223Z,22.40
2018-08-19T20:24:14.480Z,22.60
2018-08-19T20:26:42.804Z,22.60
2018-08-19T20:29:11.182Z,22.40
2018-08-19T20:31:39.430Z,22.50
2018-08-19T20:34:07.754Z,22.40
2018-08-19T20:36:36.056Z,22.40
2018-08-19T20:39:06.307Z,22.30
2018-08-19T20:41:34.691Z,22.30
2018-08-19T20:44:03.360Z,22.20
2018-08-19T20:46:32.501Z,22.00
2018-08-19T20:49:00.689Z,22.00
2018-08-19T20:51:28.854Z,21.90
2018-08-19T20:53:57.011Z,22.10
2018-08-19T20:56:25.189Z,22.10
2018-08-19T20:58:53.489Z,22.10
2018-08-19T21:01:27.814Z,21.80
2018-08-19T21:03:56.282Z,21.50
2018-08-19T21:06:24.519Z,21.00
2018-08-19T21:08:52.790Z,20.80
2018-08-19T21:11:21.051Z,20.70
2018-08-19T21:13:49.269Z,20.70
2018-08-19T21:16:17.473Z,20.70
2018-08-19T21:18:45.694Z,20.50
2018-08-19T21:21:13.913Z,20.40
2018-08-19T21:23:42.135Z,20.50
2018-08-19T21:26:10.300Z,20.40
2018-08-19T21:28:38.587Z,20.30
2018-08-19T21:31:06.826Z,20.20
2018-08-19T21:33:35.114Z,20.10
2018-08-19T21:36:03.328Z,20.10
2018-08-19T21:38:31.502Z,20.30
2018-08-19T21:40:59.746Z,20.30
2018-08-19T21:43:29.857Z,20.20
2018-08-19T21:45:58.979Z,19.90
2018-08-19T21:48:27.214Z,19.80
2018-08-19T21:50:55.439Z,19.60
2018-08-19T21:53:23.724Z,19.50
2018-08-19T21:55:52.771Z,19.40
2018-08-19T21:58:21.063Z,19.30
2018-08-19T22:00:55.870Z,19.20
2018-08-19T22:03:29.563Z,19.10
2018-08-19T22:05:57.753Z,19.10
2018-08-19T22:08:25.986Z,19.50
2018-08-19T22:10:54.230Z,20.10
2018-08-19T22:13:22.426Z,20.20
2018-08-19T22:15:50.704Z,20.00
2018-08-19T22:18:20.158Z,19.30
2018-08-19T22:21:04.854Z,19.10
2018-08-19T22:23:38.328Z,18.80
2018-08-19T22:26:06.822Z,18.80
2018-08-19T22:28:35.176Z,18.80
2018-08-19T22:31:15.461Z,19.20
2018-08-19T22:33:48.573Z,19.40
2018-08-19T22:36:17.243Z,19.00
2018-08-19T22:38:45.419Z,19.30
2018-08-19T22:41:13.671Z,19.50
2018-08-19T22:43:41.946Z,19.50
2018-08-19T22:46:10.134Z,19.10
2018-08-19T22:48:43.408Z,19.30
2018-08-19T22:51:12.597Z,19.40
2018-08-19T22:53:40.804Z,19.20
2018-08-19T22:56:09.033Z,19.30
2018-08-19T22:58:37.639Z,19.10
2018-08-19T23:01:06.499Z,19.20
2018-08-19T23:03:34.757Z,19.40
2018-08-19T23:06:02.982Z,19.50
2018-08-19T23:08:32.560Z,19.60
2018-08-19T23:11:01.973Z,19.10
2018-08-19T23:13:41.923Z,18.30
2018-08-19T23:16:12.049Z,18.30
2018-08-19T23:18:41.031Z,18.10
2018-08-19T23:21:09.621Z,18.60
2018-08-19T23:23:37.836Z,18.70
2018-08-19T23:26:06.254Z,18.80
2018-08-19T23:28:34.588Z,18.70
2018-08-19T23:31:02.823Z,18.70
2018-08-19T23:33:31.029Z,18.80
2018-08-19T23:35:59.208Z,19.00
2018-08-19T23:38:27.405Z,19.00
2018-08-19T23:40:55.613Z,18.30
2018-08-19T23:43:23.817Z,17.90
2018-08-19T23:45:51.989Z,18.00
2018-08-19T23:48:20.178Z,17.60
2018-08-19T23:50:48.427Z,17.40
2018-08-19T23:53:16.637Z,17.60
2018-08-19T23:55:44.924Z,17.40
2018-08-19T23:58:13.161Z,17.50
